sensor_id;sensor_type;location;lat;lon;timestamp;temperature;humidity
8103;DHT22;4094;49.948;11.574;2022-07-11T00:01:32;19.30;54.00
8103;DHT22;4094;49.948;11.574;2022-07-11T00:04:01;19.30;54.10
8103;DHT22;4094;49.948;11.574;2022-07-11T00:06:30;19.30;54.50
8103;DHT22;4094;49.948;11.574;2022-07-11T00:08:59;19.30;54.70
8103;DHT22;4094;49.948;11.574;2022-07-11T00:11:28;19.20;55.00
8103;DHT22;4094;49.948;11.574;2022-07-11T00:13:57;19.20;55.10
8103;DHT22;4094;49.948;11.574;2022-07-11T00:16:28;19.20;54.90
8103;DHT22;4094;49.948;11.574;2022-07-11T00:18:57;19.20;55.10
8103;DHT22;4094;49.948;11.574;2022-07-11T00:21:26;19.20;55.60
8103;DHT22;4094;49.948;11.574;2022-07-11T00:23:55;19.20;55.00
8103;DHT22;4094;49.948;11.574;2022-07-11T00:26:24;19.20;54.80
8103;DHT22;4094;49.948;11.574;2022-07-11T00:28:53;19.20;54.70
8103;DHT22;4094;49.948;11.574;2022-07-11T00:31:22;19.10;54.80
8103;DHT22;4094;49.948;11.574;2022-07-11T00:33:53;19.10;54.70
8103;DHT22;4094;49.948;11.574;2022-07-11T00:36:22;19.10;54.70
8103;DHT22;4094;49.948;11.574;2022-07-11T00:38:51;19.10;54.70
8103;DHT22;4094;49.948;11.574;2022-07-11T00:41:20;19.10;54.90
8103;DHT22;4094;49.948;11.574;2022-07-11T00:43:53;19.10;54.60
8103;DHT22;4094;49.948;11.574;2022-07-11T00:46:24;19.10;54.80
8103;DHT22;4094;49.948;11.574;2022-07-11T00:48:55;19.00;54.70
8103;DHT22;4094;49.948;11.574;2022-07-11T00:51:25;19.00;54.80
8103;DHT22;4094;49.948;11.574;2022-07-11T00:53:56;19.00;54.70
8103;DHT22;4094;49.948;11.574;2022-07-11T00:56:28;19.00;54.70
8103;DHT22;4094;49.948;11.574;2022-07-11T00:58:58;19.00;55.00
8103;DHT22;4094;49.948;11.574;2022-07-11T01:01:28;19.00;55.00
8103;DHT22;4094;49.948;11.574;2022-07-11T01:03:58;19.00;55.00
8103;DHT22;4094;49.948;11.574;2022-07-11T01:06:28;19.00;55.10
8103;DHT22;4094;49.948;11.574;2022-07-11T01:08:57;19.00;55.10
8103;DHT22;4094;49.948;11.574;2022-07-11T01:11:27;19.00;55.10
8103;DHT22;4094;49.948;11.574;2022-07-11T01:13:56;19.00;55.10
8103;DHT22;4094;49.948;11.574;2022-07-11T01:16:26;19.00;55.20
8103;DHT22;4094;49.948;11.574;2022-07-11T01:18:55;18.90;55.20
8103;DHT22;4094;49.948;11.574;2022-07-11T01:21:28;18.90;55.20
8103;DHT22;4094;49.948;11.574;2022-07-11T01:24:01;18.90;55.10
8103;DHT22;4094;49.948;11.574;2022-07-11T01:26:30;18.90;55.40
8103;DHT22;4094;49.948;11.574;2022-07-11T01:29:05;18.90;56.00
8103;DHT22;4094;49.948;11.574;2022-07-11T01:31:35;18.90;55.40
8103;DHT22;4094;49.948;11.574;2022-07-11T01:34:06;18.90;55.30
8103;DHT22;4094;49.948;11.574;2022-07-11T01:36:35;18.90;55.30
8103;DHT22;4094;49.948;11.574;2022-07-11T01:39:06;18.90;55.30
8103;DHT22;4094;49.948;11.574;2022-07-11T01:41:35;18.80;55.40
8103;DHT22;4094;49.948;11.574;2022-07-11T01:44:04;18.80;55.40
8103;DHT22;4094;49.948;11.574;2022-07-11T01:46:33;18.80;55.40
8103;DHT22;4094;49.948;11.574;2022-07-11T01:49:02;18.80;55.60
8103;DHT22;4094;49.948;11.574;2022-07-11T01:51:31;18.80;55.60
8103;DHT22;4094;49.948;11.574;2022-07-11T01:54:01;18.80;55.50
8103;DHT22;4094;49.948;11.574;2022-07-11T01:56:31;18.80;55.50
8103;DHT22;4094;49.948;11.574;2022-07-11T01:59:01;18.80;55.50
8103;DHT22;4094;49.948;11.574;2022-07-11T02:01:30;18.80;55.40
8103;DHT22;4094;49.948;11.574;2022-07-11T02:04:00;18.70;55.50
8103;DHT22;4094;49.948;11.574;2022-07-11T02:06:29;18.70;55.50
8103;DHT22;4094;49.948;11.574;2022-07-11T02:08:58;18.70;55.50
8103;DHT22;4094;49.948;11.574;2022-07-11T02:11:27;18.70;55.50
8103;DHT22;4094;49.948;11.574;2022-07-11T02:13:57;18.70;55.60
8103;DHT22;4094;49.948;11.574;2022-07-11T02:16:26;18.70;55.60
8103;DHT22;4094;49.948;11.574;2022-07-11T02:18:55;18.70;55.60
8103;DHT22;4094;49.948;11.574;2022-07-11T02:21:25;18.70;55.60
8103;DHT22;4094;49.948;11.574;2022-07-11T02:23:54;18.70;55.70
8103;DHT22;4094;49.948;11.574;2022-07-11T02:26:23;18.60;55.60
8103;DHT22;4094;49.948;11.574;2022-07-11T02:28:53;18.60;55.80
8103;DHT22;4094;49.948;11.574;2022-07-11T02:31:23;18.60;55.90
8103;DHT22;4094;49.948;11.574;2022-07-11T02:33:53;18.60;56.10
8103;DHT22;4094;49.948;11.574;2022-07-11T02:36:22;18.60;56.20
8103;DHT22;4094;49.948;11.574;2022-07-11T02:38:51;18.60;56.70
8103;DHT22;4094;49.948;11.574;2022-07-11T02:41:20;18.60;56.50
8103;DHT22;4094;49.948;11.574;2022-07-11T02:43:49;18.60;56.40
8103;DHT22;4094;49.948;11.574;2022-07-11T02:46:18;18.60;56.30
8103;DHT22;4094;49.948;11.574;2022-07-11T02:48:49;18.60;56.40
8103;DHT22;4094;49.948;11.574;2022-07-11T02:51:17;18.60;56.40
8103;DHT22;4094;49.948;11.574;2022-07-11T02:53:47;18.60;56.40
8103;DHT22;4094;49.948;11.574;2022-07-11T02:56:17;18.60;56.30
8103;DHT22;4094;49.948;11.574;2022-07-11T02:58:46;18.60;56.30
8103;DHT22;4094;49.948;11.574;2022-07-11T03:01:13;18.60;56.40
8103;DHT22;4094;49.948;11.574;2022-07-11T03:03:43;18.60;56.40
8103;DHT22;4094;49.948;11.574;2022-07-11T03:06:14;18.60;56.60
8103;DHT22;4094;49.948;11.574;2022-07-11T03:08:43;18.60;56.70
8103;DHT22;4094;49.948;11.574;2022-07-11T03:11:12;18.60;56.70
8103;DHT22;4094;49.948;11.574;2022-07-11T03:13:41;18.60;56.80
8103;DHT22;4094;49.948;11.574;2022-07-11T03:16:10;18.60;56.90
8103;DHT22;4094;49.948;11.574;2022-07-11T03:18:39;18.60;56.90
8103;DHT22;4094;49.948;11.574;2022-07-11T03:21:08;18.60;56.90
8103;DHT22;4094;49.948;11.574;2022-07-11T03:23:39;18.60;56.80
8103;DHT22;4094;49.948;11.574;2022-07-11T03:26:08;18.60;56.70
8103;DHT22;4094;49.948;11.574;2022-07-11T03:28:37;18.50;56.80
8103;DHT22;4094;49.948;11.574;2022-07-11T03:31:06;18.50;56.80
8103;DHT22;4094;49.948;11.574;2022-07-11T03:33:35;18.50;56.80
8103;DHT22;4094;49.948;11.574;2022-07-11T03:36:05;18.50;56.80
8103;DHT22;4094;49.948;11.574;2022-07-11T03:38:34;18.50;56.90
8103;DHT22;4094;49.948;11.574;2022-07-11T03:41:04;18.40;56.90
8103;DHT22;4094;49.948;11.574;2022-07-11T03:43:33;18.40;57.00
8103;DHT22;4094;49.948;11.574;2022-07-11T03:46:02;18.40;57.20
8103;DHT22;4094;49.948;11.574;2022-07-11T03:48:31;18.40;57.20
8103;DHT22;4094;49.948;11.574;2022-07-11T03:51:00;18.40;57.60
8103;DHT22;4094;49.948;11.574;2022-07-11T03:53:30;18.40;57.70
8103;DHT22;4094;49.948;11.574;2022-07-11T03:55:59;18.40;57.50
8103;DHT22;4094;49.948;11.574;2022-07-11T03:58:29;18.40;57.60
8103;DHT22;4094;49.948;11.574;2022-07-11T04:00:58;18.40;57.80
8103;DHT22;4094;49.948;11.574;2022-07-11T04:03:27;18.40;57.90
8103;DHT22;4094;49.948;11.574;2022-07-11T04:05:56;18.40;58.20
8103;DHT22;4094;49.948;11.574;2022-07-11T04:08:25;18.40;58.40
8103;DHT22;4094;49.948;11.574;2022-07-11T04:10:54;18.40;58.60
8103;DHT22;4094;49.948;11.574;2022-07-11T04:13:23;18.40;58.70
8103;DHT22;4094;49.948;11.574;2022-07-11T04:15:53;18.40;58.80
8103;DHT22;4094;49.948;11.574;2022-07-11T04:18:23;18.30;58.80
8103;DHT22;4094;49.948;11.574;2022-07-11T04:20:52;18.30;58.70
8103;DHT22;4094;49.948;11.574;2022-07-11T04:23:21;18.30;58.70
8103;DHT22;4094;49.948;11.574;2022-07-11T04:25:50;18.30;58.80
8103;DHT22;4094;49.948;11.574;2022-07-11T04:28:19;18.30;58.90
8103;DHT22;4094;49.948;11.574;2022-07-11T04:30:48;18.30;58.90
8103;DHT22;4094;49.948;11.574;2022-07-11T04:33:19;18.30;59.00
8103;DHT22;4094;49.948;11.574;2022-07-11T04:35:48;18.20;59.10
8103;DHT22;4094;49.948;11.574;2022-07-11T04:38:17;18.30;59.20
8103;DHT22;4094;49.948;11.574;2022-07-11T04:40:49;18.20;59.20
8103;DHT22;4094;49.948;11.574;2022-07-11T04:43:18;18.20;59.20
8103;DHT22;4094;49.948;11.574;2022-07-11T04:45:48;18.20;59.40
8103;DHT22;4094;49.948;11.574;2022-07-11T04:48:19;18.20;59.50
8103;DHT22;4094;49.948;11.574;2022-07-11T04:50:49;18.20;59.60
8103;DHT22;4094;49.948;11.574;2022-07-11T04:53:18;18.20;59.60
8103;DHT22;4094;49.948;11.574;2022-07-11T04:55:48;18.30;59.90
8103;DHT22;4094;49.948;11.574;2022-07-11T04:58:17;18.30;60.30
8103;DHT22;4094;49.948;11.574;2022-07-11T05:00:46;18.30;60.20
8103;DHT22;4094;49.948;11.574;2022-07-11T05:03:16;18.30;60.30
8103;DHT22;4094;49.948;11.574;2022-07-11T05:05:46;18.30;60.40
8103;DHT22;4094;49.948;11.574;2022-07-11T05:08:16;18.30;60.50
8103;DHT22;4094;49.948;11.574;2022-07-11T05:10:45;18.30;60.60
8103;DHT22;4094;49.948;11.574;2022-07-11T05:13:14;18.30;60.50
8103;DHT22;4094;49.948;11.574;2022-07-11T05:15:44;18.30;60.30
8103;DHT22;4094;49.948;11.574;2022-07-11T05:18:13;18.40;60.40
8103;DHT22;4094;49.948;11.574;2022-07-11T05:20:42;18.40;60.40
8103;DHT22;4094;49.948;11.574;2022-07-11T05:23:13;18.40;60.20
8103;DHT22;4094;49.948;11.574;2022-07-11T05:25:42;18.40;60.40
8103;DHT22;4094;49.948;11.574;2022-07-11T05:28:11;18.40;60.10
8103;DHT22;4094;49.948;11.574;2022-07-11T05:30:41;18.50;60.20
8103;DHT22;4094;49.948;11.574;2022-07-11T05:33:10;18.50;60.00
8103;DHT22;4094;49.948;11.574;2022-07-11T05:35:39;18.50;59.90
8103;DHT22;4094;49.948;11.574;2022-07-11T05:38:09;18.50;59.90
8103;DHT22;4094;49.948;11.574;2022-07-11T05:40:39;18.50;59.70
8103;DHT22;4094;49.948;11.574;2022-07-11T05:43:09;18.50;60.00
8103;DHT22;4094;49.948;11.574;2022-07-11T05:45:39;18.60;59.70
8103;DHT22;4094;49.948;11.574;2022-07-11T05:48:08;18.60;59.70
8103;DHT22;4094;49.948;11.574;2022-07-11T05:50:37;18.60;60.20
8103;DHT22;4094;49.948;11.574;2022-07-11T05:53:07;18.60;60.10
8103;DHT22;4094;49.948;11.574;2022-07-11T05:55:40;18.60;59.80
8103;DHT22;4094;49.948;11.574;2022-07-11T05:58:09;18.70;59.60
8103;DHT22;4094;49.948;11.574;2022-07-11T06:00:39;18.70;59.60
8103;DHT22;4094;49.948;11.574;2022-07-11T06:03:08;18.70;59.50
8103;DHT22;4094;49.948;11.574;2022-07-11T06:05:37;18.80;59.40
8103;DHT22;4094;49.948;11.574;2022-07-11T06:08:07;18.70;59.30
8103;DHT22;4094;49.948;11.574;2022-07-11T06:10:55;18.80;59.30
8103;DHT22;4094;49.948;11.574;2022-07-11T06:13:24;18.80;59.30
8103;DHT22;4094;49.948;11.574;2022-07-11T06:15:54;18.80;59.30
8103;DHT22;4094;49.948;11.574;2022-07-11T06:18:24;18.80;59.40
8103;DHT22;4094;49.948;11.574;2022-07-11T06:20:53;18.80;59.40
8103;DHT22;4094;49.948;11.574;2022-07-11T06:23:23;18.80;59.50
8103;DHT22;4094;49.948;11.574;2022-07-11T06:25:52;18.80;59.40
8103;DHT22;4094;49.948;11.574;2022-07-11T06:28:23;18.90;59.30
8103;DHT22;4094;49.948;11.574;2022-07-11T06:30:52;18.90;59.30
8103;DHT22;4094;49.948;11.574;2022-07-11T06:33:22;18.90;59.20
8103;DHT22;4094;49.948;11.574;2022-07-11T06:35:51;18.90;59.20
8103;DHT22;4094;49.948;11.574;2022-07-11T06:38:20;18.90;59.30
8103;DHT22;4094;49.948;11.574;2022-07-11T06:40:49;18.90;59.30
8103;DHT22;4094;49.948;11.574;2022-07-11T06:43:18;18.90;59.10
8103;DHT22;4094;49.948;11.574;2022-07-11T06:45:49;19.00;59.30
8103;DHT22;4094;49.948;11.574;2022-07-11T06:48:18;19.00;59.20
8103;DHT22;4094;49.948;11.574;2022-07-11T06:50:49;19.00;59.10
8103;DHT22;4094;49.948;11.574;2022-07-11T06:53:18;19.00;59.10
8103;DHT22;4094;49.948;11.574;2022-07-11T06:55:47;19.00;59.10
8103;DHT22;4094;49.948;11.574;2022-07-11T06:58:16;19.10;58.90
8103;DHT22;4094;49.948;11.574;2022-07-11T07:01:03;19.10;58.80
8103;DHT22;4094;49.948;11.574;2022-07-11T07:03:33;19.10;59.20
8103;DHT22;4094;49.948;11.574;2022-07-11T07:06:03;19.20;58.80
8103;DHT22;4094;49.948;11.574;2022-07-11T07:08:33;19.20;58.80
8103;DHT22;4094;49.948;11.574;2022-07-11T07:11:02;19.20;58.70
8103;DHT22;4094;49.948;11.574;2022-07-11T07:13:36;19.30;58.60
8103;DHT22;4094;49.948;11.574;2022-07-11T07:16:07;19.30;58.60
8103;DHT22;4094;49.948;11.574;2022-07-11T07:18:36;19.30;58.40
8103;DHT22;4094;49.948;11.574;2022-07-11T07:21:10;19.30;58.50
8103;DHT22;4094;49.948;11.574;2022-07-11T07:23:39;19.40;58.50
8103;DHT22;4094;49.948;11.574;2022-07-11T07:26:09;19.40;58.40
8103;DHT22;4094;49.948;11.574;2022-07-11T07:28:38;19.40;58.10
8103;DHT22;4094;49.948;11.574;2022-07-11T07:31:09;19.40;58.30
8103;DHT22;4094;49.948;11.574;2022-07-11T07:33:43;19.40;57.80
8103;DHT22;4094;49.948;11.574;2022-07-11T07:36:14;19.50;57.90
8103;DHT22;4094;49.948;11.574;2022-07-11T07:38:44;19.50;57.60
8103;DHT22;4094;49.948;11.574;2022-07-11T07:41:15;19.50;58.00
8103;DHT22;4094;49.948;11.574;2022-07-11T07:43:44;19.50;58.00
8103;DHT22;4094;49.948;11.574;2022-07-11T07:46:17;19.50;57.10
8103;DHT22;4094;49.948;11.574;2022-07-11T07:48:48;19.50;57.50
8103;DHT22;4094;49.948;11.574;2022-07-11T07:51:17;19.50;57.50
8103;DHT22;4094;49.948;11.574;2022-07-11T07:53:46;19.60;57.70
8103;DHT22;4094;49.948;11.574;2022-07-11T07:56:23;19.60;57.60
8103;DHT22;4094;49.948;11.574;2022-07-11T07:58:53;19.70;57.30
8103;DHT22;4094;49.948;11.574;2022-07-11T08:01:23;19.70;57.30
8103;DHT22;4094;49.948;11.574;2022-07-11T08:04:05;19.80;57.10
8103;DHT22;4094;49.948;11.574;2022-07-11T08:06:35;19.90;57.50
8103;DHT22;4094;49.948;11.574;2022-07-11T08:09:05;19.90;57.10
8103;DHT22;4094;49.948;11.574;2022-07-11T08:11:35;19.90;56.90
8103;DHT22;4094;49.948;11.574;2022-07-11T08:14:04;20.00;57.20
8103;DHT22;4094;49.948;11.574;2022-07-11T08:16:36;20.00;56.80
8103;DHT22;4094;49.948;11.574;2022-07-11T08:19:07;20.00;56.60
8103;DHT22;4094;49.948;11.574;2022-07-11T08:21:37;20.10;56.60
8103;DHT22;4094;49.948;11.574;2022-07-11T08:24:06;20.10;56.30
8103;DHT22;4094;49.948;11.574;2022-07-11T08:26:36;20.10;56.40
8103;DHT22;4094;49.948;11.574;2022-07-11T08:29:05;20.20;56.10
8103;DHT22;4094;49.948;11.574;2022-07-11T08:31:35;20.20;56.20
8103;DHT22;4094;49.948;11.574;2022-07-11T08:34:05;20.30;55.80
8103;DHT22;4094;49.948;11.574;2022-07-11T08:36:42;20.30;55.60
8103;DHT22;4094;49.948;11.574;2022-07-11T08:39:11;20.40;55.70
8103;DHT22;4094;49.948;11.574;2022-07-11T08:41:43;20.40;55.60
8103;DHT22;4094;49.948;11.574;2022-07-11T08:44:12;20.50;55.60
8103;DHT22;4094;49.948;11.574;2022-07-11T08:46:43;20.50;55.50
8103;DHT22;4094;49.948;11.574;2022-07-11T08:49:13;20.60;55.50
8103;DHT22;4094;49.948;11.574;2022-07-11T08:51:43;20.70;55.00
8103;DHT22;4094;49.948;11.574;2022-07-11T08:54:13;20.80;54.50
8103;DHT22;4094;49.948;11.574;2022-07-11T08:56:44;20.80;54.70
8103;DHT22;4094;49.948;11.574;2022-07-11T08:59:15;20.90;54.70
8103;DHT22;4094;49.948;11.574;2022-07-11T09:01:48;21.00;54.70
8103;DHT22;4094;49.948;11.574;2022-07-11T09:04:19;21.00;53.80
8103;DHT22;4094;49.948;11.574;2022-07-11T09:06:49;21.10;53.70
8103;DHT22;4094;49.948;11.574;2022-07-11T09:09:18;21.10;53.50
8103;DHT22;4094;49.948;11.574;2022-07-11T09:11:48;21.20;53.50
8103;DHT22;4094;49.948;11.574;2022-07-11T09:14:23;21.20;53.50
8103;DHT22;4094;49.948;11.574;2022-07-11T09:16:58;21.20;53.20
8103;DHT22;4094;49.948;11.574;2022-07-11T09:19:28;21.20;53.90
8103;DHT22;4094;49.948;11.574;2022-07-11T09:22:00;21.20;53.70
8103;DHT22;4094;49.948;11.574;2022-07-11T09:24:57;21.20;53.30
8103;DHT22;4094;49.948;11.574;2022-07-11T09:27:46;21.20;53.10
8103;DHT22;4094;49.948;11.574;2022-07-11T09:30:21;21.20;53.00
8103;DHT22;4094;49.948;11.574;2022-07-11T09:32:54;21.10;53.10
8103;DHT22;4094;49.948;11.574;2022-07-11T09:35:26;21.10;53.00
8103;DHT22;4094;49.948;11.574;2022-07-11T09:37:55;21.10;53.10
8103;DHT22;4094;49.948;11.574;2022-07-11T09:40:25;21.10;53.20
8103;DHT22;4094;49.948;11.574;2022-07-11T09:42:56;21.00;53.20
8103;DHT22;4094;49.948;11.574;2022-07-11T09:45:27;21.00;53.50
8103;DHT22;4094;49.948;11.574;2022-07-11T09:47:59;21.10;53.70
8103;DHT22;4094;49.948;11.574;2022-07-11T09:50:30;21.10;53.20
8103;DHT22;4094;49.948;11.574;2022-07-11T09:53:01;21.20;53.50
8103;DHT22;4094;49.948;11.574;2022-07-11T09:55:32;21.20;53.30
8103;DHT22;4094;49.948;11.574;2022-07-11T09:58:21;21.20;53.00
8103;DHT22;4094;49.948;11.574;2022-07-11T10:00:57;21.20;53.00
8103;DHT22;4094;49.948;11.574;2022-07-11T10:03:29;21.20;53.00
8103;DHT22;4094;49.948;11.574;2022-07-11T10:06:18;21.30;52.80
8103;DHT22;4094;49.948;11.574;2022-07-11T10:08:47;21.30;52.80
8103;DHT22;4094;49.948;11.574;2022-07-11T10:11:17;21.30;53.00
8103;DHT22;4094;49.948;11.574;2022-07-11T10:13:46;21.30;53.10
8103;DHT22;4094;49.948;11.574;2022-07-11T10:16:22;21.30;52.70
8103;DHT22;4094;49.948;11.574;2022-07-11T10:19:04;21.30;52.50
8103;DHT22;4094;49.948;11.574;2022-07-11T10:21:41;21.40;52.50
8103;DHT22;4094;49.948;11.574;2022-07-11T10:24:32;21.40;52.60
8103;DHT22;4094;49.948;11.574;2022-07-11T10:27:09;21.50;52.40
8103;DHT22;4094;49.948;11.574;2022-07-11T10:29:45;21.60;52.40
8103;DHT22;4094;49.948;11.574;2022-07-11T10:32:18;21.60;52.20
8103;DHT22;4094;49.948;11.574;2022-07-11T10:35:07;21.70;52.60
8103;DHT22;4094;49.948;11.574;2022-07-11T10:37:48;21.80;52.10
8103;DHT22;4094;49.948;11.574;2022-07-11T10:40:43;21.90;52.40
8103;DHT22;4094;49.948;11.574;2022-07-11T10:43:15;22.00;52.10
8103;DHT22;4094;49.948;11.574;2022-07-11T10:45:56;22.10;51.30
8103;DHT22;4094;49.948;11.574;2022-07-11T10:48:27;22.20;51.30
8103;DHT22;4094;49.948;11.574;2022-07-11T10:51:11;22.30;51.60
8103;DHT22;4094;49.948;11.574;2022-07-11T10:53:46;22.40;50.80
8103;DHT22;4094;49.948;11.574;2022-07-11T10:56:35;22.40;50.80
8103;DHT22;4094;49.948;11.574;2022-07-11T10:59:22;22.50;51.00
8103;DHT22;4094;49.948;11.574;2022-07-11T11:02:08;22.50;50.50
8103;DHT22;4094;49.948;11.574;2022-07-11T11:04:45;22.60;50.40
8103;DHT22;4094;49.948;11.574;2022-07-11T11:07:37;22.70;50.00
8103;DHT22;4094;49.948;11.574;2022-07-11T11:13:19;22.70;49.30
8103;DHT22;4094;49.948;11.574;2022-07-11T11:15:50;22.80;49.40
8103;DHT22;4094;49.948;11.574;2022-07-11T11:18:33;22.80;49.60
8103;DHT22;4094;49.948;11.574;2022-07-11T11:21:20;22.80;49.40
8103;DHT22;4094;49.948;11.574;2022-07-11T11:24:07;22.90;48.80
8103;DHT22;4094;49.948;11.574;2022-07-11T11:26:48;23.00;48.90
8103;DHT22;4094;49.948;11.574;2022-07-11T11:29:19;23.00;48.70
8103;DHT22;4094;49.948;11.574;2022-07-11T11:31:50;23.00;48.20
8103;DHT22;4094;49.948;11.574;2022-07-11T11:34:20;23.10;48.40
8103;DHT22;4094;49.948;11.574;2022-07-11T11:36:58;23.10;48.40
8103;DHT22;4094;49.948;11.574;2022-07-11T11:39:34;23.20;48.50
8103;DHT22;4094;49.948;11.574;2022-07-11T11:42:06;23.20;48.60
8103;DHT22;4094;49.948;11.574;2022-07-11T11:44:48;23.30;48.40
8103;DHT22;4094;49.948;11.574;2022-07-11T11:47:19;23.40;48.40
8103;DHT22;4094;49.948;11.574;2022-07-11T11:49:49;23.40;47.70
8103;DHT22;4094;49.948;11.574;2022-07-11T11:52:20;23.50;47.50
8103;DHT22;4094;49.948;11.574;2022-07-11T11:54:54;23.50;47.30
8103;DHT22;4094;49.948;11.574;2022-07-11T11:57:28;23.50;47.20
8103;DHT22;4094;49.948;11.574;2022-07-11T11:59:57;23.60;47.70
8103;DHT22;4094;49.948;11.574;2022-07-11T12:02:30;23.60;47.20
8103;DHT22;4094;49.948;11.574;2022-07-11T12:05:07;23.60;47.10
8103;DHT22;4094;49.948;11.574;2022-07-11T12:07:37;23.70;47.60
8103;DHT22;4094;49.948;11.574;2022-07-11T12:10:08;23.70;47.40
8103;DHT22;4094;49.948;11.574;2022-07-11T12:12:37;23.70;46.90
8103;DHT22;4094;49.948;11.574;2022-07-11T12:15:26;23.80;47.30
8103;DHT22;4094;49.948;11.574;2022-07-11T12:17:57;23.90;47.20
8103;DHT22;4094;49.948;11.574;2022-07-11T12:20:36;24.00;47.50
8103;DHT22;4094;49.948;11.574;2022-07-11T12:23:08;24.10;46.80
8103;DHT22;4094;49.948;11.574;2022-07-11T12:25:49;24.20;46.40
8103;DHT22;4094;49.948;11.574;2022-07-11T12:28:18;24.20;47.00
8103;DHT22;4094;49.948;11.574;2022-07-11T12:30:54;24.30;46.70
8103;DHT22;4094;49.948;11.574;2022-07-11T12:33:25;24.40;46.60
8103;DHT22;4094;49.948;11.574;2022-07-11T12:35:56;24.40;46.60
8103;DHT22;4094;49.948;11.574;2022-07-11T12:38:47;24.60;46.60
8103;DHT22;4094;49.948;11.574;2022-07-11T12:41:20;24.60;46.10
8103;DHT22;4094;49.948;11.574;2022-07-11T12:43:50;24.70;46.50
8103;DHT22;4094;49.948;11.574;2022-07-11T12:46:38;24.70;46.00
8103;DHT22;4094;49.948;11.574;2022-07-11T12:49:09;24.70;45.60
8103;DHT22;4094;49.948;11.574;2022-07-11T12:51:40;24.70;45.70
8103;DHT22;4094;49.948;11.574;2022-07-11T12:54:11;24.60;45.40
8103;DHT22;4094;49.948;11.574;2022-07-11T12:56:52;24.70;45.90
8103;DHT22;4094;49.948;11.574;2022-07-11T12:59:23;24.60;45.60
8103;DHT22;4094;49.948;11.574;2022-07-11T13:01:57;24.60;45.70
8103;DHT22;4094;49.948;11.574;2022-07-11T13:04:33;24.60;46.40
8103;DHT22;4094;49.948;11.574;2022-07-11T13:07:25;24.60;47.00
8103;DHT22;4094;49.948;11.574;2022-07-11T13:10:14;24.60;46.30
8103;DHT22;4094;49.948;11.574;2022-07-11T13:12:47;24.60;46.00
8103;DHT22;4094;49.948;11.574;2022-07-11T13:15:17;24.70;45.60
8103;DHT22;4094;49.948;11.574;2022-07-11T13:17:49;24.70;46.00
8103;DHT22;4094;49.948;11.574;2022-07-11T13:20:21;24.60;45.60
8103;DHT22;4094;49.948;11.574;2022-07-11T13:22:51;24.60;45.60
8103;DHT22;4094;49.948;11.574;2022-07-11T13:25:21;24.60;46.00
8103;DHT22;4094;49.948;11.574;2022-07-11T13:27:53;24.60;46.50
8103;DHT22;4094;49.948;11.574;2022-07-11T13:30:23;24.60;46.30
8103;DHT22;4094;49.948;11.574;2022-07-11T13:33:16;24.60;46.30
8103;DHT22;4094;49.948;11.574;2022-07-11T13:35:46;24.70;46.10
8103;DHT22;4094;49.948;11.574;2022-07-11T13:38:15;24.70;45.90
8103;DHT22;4094;49.948;11.574;2022-07-11T13:40:45;24.70;46.10
8103;DHT22;4094;49.948;11.574;2022-07-11T13:43:15;24.70;46.20
8103;DHT22;4094;49.948;11.574;2022-07-11T13:45:45;24.60;46.40
8103;DHT22;4094;49.948;11.574;2022-07-11T13:48:16;24.60;46.20
8103;DHT22;4094;49.948;11.574;2022-07-11T13:50:45;24.60;46.40
8103;DHT22;4094;49.948;11.574;2022-07-11T13:53:14;24.60;46.70
8103;DHT22;4094;49.948;11.574;2022-07-11T13:55:44;24.50;46.70
8103;DHT22;4094;49.948;11.574;2022-07-11T13:58:14;24.50;46.50
8103;DHT22;4094;49.948;11.574;2022-07-11T14:00:58;24.50;46.70
8103;DHT22;4094;49.948;11.574;2022-07-11T14:03:28;24.40;46.60
8103;DHT22;4094;49.948;11.574;2022-07-11T14:05:57;24.40;46.80
8103;DHT22;4094;49.948;11.574;2022-07-11T14:08:26;24.30;46.80
8103;DHT22;4094;49.948;11.574;2022-07-11T14:10:55;24.30;46.90
8103;DHT22;4094;49.948;11.574;2022-07-11T14:13:26;24.30;47.10
8103;DHT22;4094;49.948;11.574;2022-07-11T14:15:55;24.20;47.10
8103;DHT22;4094;49.948;11.574;2022-07-11T14:18:33;24.20;47.20
8103;DHT22;4094;49.948;11.574;2022-07-11T14:21:02;24.20;47.40
8103;DHT22;4094;49.948;11.574;2022-07-11T14:23:31;24.20;47.50
8103;DHT22;4094;49.948;11.574;2022-07-11T14:26:00;24.20;47.30
8103;DHT22;4094;49.948;11.574;2022-07-11T14:28:35;24.20;47.50
8103;DHT22;4094;49.948;11.574;2022-07-11T14:31:04;24.10;47.10
8103;DHT22;4094;49.948;11.574;2022-07-11T14:33:33;24.10;47.20
8103;DHT22;4094;49.948;11.574;2022-07-11T14:36:02;24.10;47.20
8103;DHT22;4094;49.948;11.574;2022-07-11T14:38:33;24.10;47.10
8103;DHT22;4094;49.948;11.574;2022-07-11T14:41:02;24.10;47.10
8103;DHT22;4094;49.948;11.574;2022-07-11T14:43:31;24.10;47.20
8103;DHT22;4094;49.948;11.574;2022-07-11T14:46:02;24.10;47.10
8103;DHT22;4094;49.948;11.574;2022-07-11T14:48:30;24.10;47.10
8103;DHT22;4094;49.948;11.574;2022-07-11T14:51:00;24.00;47.00
8103;DHT22;4094;49.948;11.574;2022-07-11T14:53:29;24.00;47.10
8103;DHT22;4094;49.948;11.574;2022-07-11T14:55:58;24.00;47.30
8103;DHT22;4094;49.948;11.574;2022-07-11T14:58:47;24.00;47.40
8103;DHT22;4094;49.948;11.574;2022-07-11T15:01:18;24.00;47.40
8103;DHT22;4094;49.948;11.574;2022-07-11T15:03:48;24.00;47.60
8103;DHT22;4094;49.948;11.574;2022-07-11T15:06:17;24.00;47.70
8103;DHT22;4094;49.948;11.574;2022-07-11T15:08:46;24.00;47.50
8103;DHT22;4094;49.948;11.574;2022-07-11T15:11:33;24.10;47.50
8103;DHT22;4094;49.948;11.574;2022-07-11T15:14:20;24.20;47.20
8103;DHT22;4094;49.948;11.574;2022-07-11T15:16:50;24.20;46.90
8103;DHT22;4094;49.948;11.574;2022-07-11T15:19:20;24.30;46.80
8103;DHT22;4094;49.948;11.574;2022-07-11T15:21:49;24.40;46.80
8103;DHT22;4094;49.948;11.574;2022-07-11T15:24:18;24.40;46.90
8103;DHT22;4094;49.948;11.574;2022-07-11T15:26:47;24.50;46.90
8103;DHT22;4094;49.948;11.574;2022-07-11T15:29:16;24.60;46.80
8103;DHT22;4094;49.948;11.574;2022-07-11T15:31:46;24.60;46.90
8103;DHT22;4094;49.948;11.574;2022-07-11T15:34:17;24.70;46.70
8103;DHT22;4094;49.948;11.574;2022-07-11T15:36:47;24.70;46.70
8103;DHT22;4094;49.948;11.574;2022-07-11T15:39:16;24.70;46.80
8103;DHT22;4094;49.948;11.574;2022-07-11T15:41:45;24.70;47.00
8103;DHT22;4094;49.948;11.574;2022-07-11T15:44:15;24.70;46.90
8103;DHT22;4094;49.948;11.574;2022-07-11T15:46:44;24.70;46.80
8103;DHT22;4094;49.948;11.574;2022-07-11T15:49:13;24.80;47.00
8103;DHT22;4094;49.948;11.574;2022-07-11T15:51:44;24.80;46.20
8103;DHT22;4094;49.948;11.574;2022-07-11T15:54:13;24.80;45.90
8103;DHT22;4094;49.948;11.574;2022-07-11T15:56:42;24.80;46.00
8103;DHT22;4094;49.948;11.574;2022-07-11T15:59:12;24.70;46.10
8103;DHT22;4094;49.948;11.574;2022-07-11T16:01:41;24.70;46.10
8103;DHT22;4094;49.948;11.574;2022-07-11T16:04:11;24.70;46.20
8103;DHT22;4094;49.948;11.574;2022-07-11T16:06:41;24.70;46.00
8103;DHT22;4094;49.948;11.574;2022-07-11T16:09:12;24.60;46.20
8103;DHT22;4094;49.948;11.574;2022-07-11T16:11:41;24.70;46.20
8103;DHT22;4094;49.948;11.574;2022-07-11T16:14:11;24.70;46.10
8103;DHT22;4094;49.948;11.574;2022-07-11T16:16:41;24.80;46.30